sensor_id;sensor_type;location;lat;lon;timestamp;P1;durP1;ratioP1;P2;durP2;ratioP2
62788;SDS011;66401;42.016;21.454;2023-04-04T00:00:23;0.70;;;0.70;;
62788;SDS011;66401;42.016;21.454;2023-04-04T00:02:49;0.37;;;0.37;;
62788;SDS011;66401;42.016;21.454;2023-04-04T00:05:15;0.40;;;0.40;;
62788;SDS011;66401;42.016;21.454;2023-04-04T00:07:45;0.30;;;0.30;;
62788;SDS011;66401;42.016;21.454;2023-04-04T00:10:11;0.20;;;0.20;;
62788;SDS011;66401;42.016;21.454;2023-04-04T00:12:37;0.80;;;0.57;;
62788;SDS011;66401;42.016;21.454;2023-04-04T00:15:02;0.80;;;0.80;;
62788;SDS011;66401;42.016;21.454;2023-04-04T00:17:28;1.97;;;1.87;;
62788;SDS011;66401;42.016;21.454;2023-04-04T00:19:54;2.30;;;2.10;;
62788;SDS011;66401;42.016;21.454;2023-04-04T00:22:21;2.07;;;1.97;;
62788;SDS011;66401;42.016;21.454;2023-04-04T00:24:46;2.73;;;2.40;;
62788;SDS011;66401;42.016;21.454;2023-04-04T00:27:13;2.43;;;1.80;;
62788;SDS011;66401;42.016;21.454;2023-04-04T00:29:38;1.50;;;1.40;;
62788;SDS011;66401;42.016;21.454;2023-04-04T00:32:04;1.73;;;1.63;;
62788;SDS011;66401;42.016;21.454;2023-04-04T00:34:29;2.83;;;2.07;;
62788;SDS011;66401;42.016;21.454;2023-04-04T00:36:55;3.70;;;2.07;;
62788;SDS011;66401;42.016;21.454;2023-04-04T00:39:21;3.33;;;1.80;;
62788;SDS011;66401;42.016;21.454;2023-04-04T00:41:47;1.73;;;1.60;;
62788;SDS011;66401;42.016;21.454;2023-04-04T00:44:14;1.73;;;1.63;;
62788;SDS011;66401;42.016;21.454;2023-04-04T00:46:40;1.67;;;1.53;;
62788;SDS011;66401;42.016;21.454;2023-04-04T00:49:05;1.93;;;1.80;;
62788;SDS011;66401;42.016;21.454;2023-04-04T00:51:31;2.33;;;2.07;;
62788;SDS011;66401;42.016;21.454;2023-04-04T00:53:56;1.70;;;1.60;;
62788;SDS011;66401;42.016;21.454;2023-04-04T00:56:23;2.13;;;1.93;;
62788;SDS011;66401;42.016;21.454;2023-04-04T00:58:49;2.57;;;2.27;;
62788;SDS011;66401;42.016;21.454;2023-04-04T01:01:15;1.93;;;1.83;;
62788;SDS011;66401;42.016;21.454;2023-04-04T01:03:40;2.43;;;1.83;;
62788;SDS011;66401;42.016;21.454;2023-04-04T01:06:06;3.17;;;2.13;;
62788;SDS011;66401;42.016;21.454;2023-04-04T01:08:33;2.20;;;2.07;;
62788;SDS011;66401;42.016;21.454;2023-04-04T01:11:04;2.60;;;2.17;;
62788;SDS011;66401;42.016;21.454;2023-04-04T01:13:30;1.93;;;1.83;;
62788;SDS011;66401;42.016;21.454;2023-04-04T01:15:56;2.53;;;2.30;;
62788;SDS011;66401;42.016;21.454;2023-04-04T01:18:22;1.83;;;1.67;;
62788;SDS011;66401;42.016;21.454;2023-04-04T01:23:33;1.70;;;0.80;;
62788;SDS011;66401;42.016;21.454;2023-04-04T01:26:07;0.67;;;0.63;;
62788;SDS011;66401;42.016;21.454;2023-04-04T01:28:33;2.60;;;0.90;;
62788;SDS011;66401;42.016;21.454;2023-04-04T01:30:59;1.30;;;1.20;;
62788;SDS011;66401;42.016;21.454;2023-04-04T01:33:45;1.80;;;1.70;;
62788;SDS011;66401;42.016;21.454;2023-04-04T01:39:23;6.07;;;4.53;;
62788;SDS011;66401;42.016;21.454;2023-04-04T01:41:52;6.83;;;4.27;;
62788;SDS011;66401;42.016;21.454;2023-04-04T01:44:20;4.53;;;3.67;;
62788;SDS011;66401;42.016;21.454;2023-04-04T01:46:46;1.57;;;1.47;;
62788;SDS011;66401;42.016;21.454;2023-04-04T01:49:20;1.90;;;1.80;;
62788;SDS011;66401;42.016;21.454;2023-04-04T01:51:47;2.10;;;1.90;;
62788;SDS011;66401;42.016;21.454;2023-04-04T01:54:13;0.83;;;0.83;;
62788;SDS011;66401;42.016;21.454;2023-04-04T01:56:39;1.10;;;0.80;;
62788;SDS011;66401;42.016;21.454;2023-04-04T01:59:05;0.90;;;0.90;;
62788;SDS011;66401;42.016;21.454;2023-04-04T02:01:31;3.10;;;1.40;;
62788;SDS011;66401;42.016;21.454;2023-04-04T02:03:57;1.17;;;1.07;;
62788;SDS011;66401;42.016;21.454;2023-04-04T02:06:23;1.50;;;1.40;;
62788;SDS011;66401;42.016;21.454;2023-04-04T02:08:48;1.63;;;1.53;;
62788;SDS011;66401;42.016;21.454;2023-04-04T02:11:14;2.50;;;2.30;;
62788;SDS011;66401;42.016;21.454;2023-04-04T02:13:39;3.70;;;3.37;;
62788;SDS011;66401;42.016;21.454;2023-04-04T02:16:08;10.17;;;7.17;;
62788;SDS011;66401;42.016;21.454;2023-04-04T02:18:34;10.83;;;7.93;;
62788;SDS011;66401;42.016;21.454;2023-04-04T02:21:00;3.93;;;3.53;;
62788;SDS011;66401;42.016;21.454;2023-04-04T02:23:25;2.43;;;2.23;;
62788;SDS011;66401;42.016;21.454;2023-04-04T02:25:51;3.53;;;1.97;;
62788;SDS011;66401;42.016;21.454;2023-04-04T02:28:16;2.90;;;2.27;;
62788;SDS011;66401;42.016;21.454;2023-04-04T02:30:42;2.40;;;2.20;;
62788;SDS011;66401;42.016;21.454;2023-04-04T02:33:09;1.93;;;1.83;;
62788;SDS011;66401;42.016;21.454;2023-04-04T02:35:34;2.63;;;2.37;;
62788;SDS011;66401;42.016;21.454;2023-04-04T02:38:00;2.93;;;2.60;;
62788;SDS011;66401;42.016;21.454;2023-04-04T02:40:25;2.23;;;2.03;;
62788;SDS011;66401;42.016;21.454;2023-04-04T02:42:51;2.40;;;2.20;;
62788;SDS011;66401;42.016;21.454;2023-04-04T02:45:16;2.83;;;2.37;;
62788;SDS011;66401;42.016;21.454;2023-04-04T02:47:42;4.50;;;2.90;;
62788;SDS011;66401;42.016;21.454;2023-04-04T02:50:14;3.70;;;2.47;;
62788;SDS011;66401;42.016;21.454;2023-04-04T02:52:40;2.97;;;2.77;;
62788;SDS011;66401;42.016;21.454;2023-04-04T02:55:05;3.87;;;2.67;;
62788;SDS011;66401;42.016;21.454;2023-04-04T02:57:32;4.53;;;3.13;;
62788;SDS011;66401;42.016;21.454;2023-04-04T02:59:58;2.90;;;2.17;;
62788;SDS011;66401;42.016;21.454;2023-04-04T03:02:23;2.27;;;1.80;;
62788;SDS011;66401;42.016;21.454;2023-04-04T03:04:50;1.57;;;1.47;;
62788;SDS011;66401;42.016;21.454;2023-04-04T03:07:15;1.40;;;1.30;;
62788;SDS011;66401;42.016;21.454;2023-04-04T03:09:43;1.80;;;0.90;;
62788;SDS011;66401;42.016;21.454;2023-04-04T03:12:12;1.77;;;1.00;;
62788;SDS011;66401;42.016;21.454;2023-04-04T03:14:37;1.53;;;0.60;;
62788;SDS011;66401;42.016;21.454;2023-04-04T03:17:03;0.60;;;0.40;;
62788;SDS011;66401;42.016;21.454;2023-04-04T03:19:29;0.90;;;0.77;;
62788;SDS011;66401;42.016;21.454;2023-04-04T03:21:54;0.47;;;0.40;;
62788;SDS011;66401;42.016;21.454;2023-04-04T03:24:20;0.67;;;0.40;;
62788;SDS011;66401;42.016;21.454;2023-04-04T03:26:46;0.90;;;0.90;;
62788;SDS011;66401;42.016;21.454;2023-04-04T03:29:12;3.70;;;3.03;;
62788;SDS011;66401;42.016;21.454;2023-04-04T03:31:37;7.17;;;3.90;;
62788;SDS011;66401;42.016;21.454;2023-04-04T03:34:03;7.83;;;5.00;;
62788;SDS011;66401;42.016;21.454;2023-04-04T03:36:29;7.60;;;4.60;;
62788;SDS011;66401;42.016;21.454;2023-04-04T03:38:55;7.50;;;5.00;;
62788;SDS011;66401;42.016;21.454;2023-04-04T03:41:21;7.43;;;4.87;;
62788;SDS011;66401;42.016;21.454;2023-04-04T03:43:46;5.73;;;4.10;;
62788;SDS011;66401;42.016;21.454;2023-04-04T03:46:15;5.57;;;4.60;;
62788;SDS011;66401;42.016;21.454;2023-04-04T03:48:40;9.00;;;5.17;;
62788;SDS011;66401;42.016;21.454;2023-04-04T03:51:06;5.63;;;4.50;;
62788;SDS011;66401;42.016;21.454;2023-04-04T03:53:31;5.37;;;4.33;;
62788;SDS011;66401;42.016;21.454;2023-04-04T03:55:58;6.10;;;4.27;;
62788;SDS011;66401;42.016;21.454;2023-04-04T03:58:24;5.70;;;3.70;;
62788;SDS011;66401;42.016;21.454;2023-04-04T04:00:52;4.20;;;3.60;;
62788;SDS011;66401;42.016;21.454;2023-04-04T04:03:17;4.37;;;3.30;;
62788;SDS011;66401;42.016;21.454;2023-04-04T04:05:43;5.03;;;3.13;;
62788;SDS011;66401;42.016;21.454;2023-04-04T04:08:08;4.97;;;3.00;;
62788;SDS011;66401;42.016;21.454;2023-04-04T04:10:33;3.40;;;2.57;;
62788;SDS011;66401;42.016;21.454;2023-04-04T04:12:59;4.37;;;3.10;;
62788;SDS011;66401;42.016;21.454;2023-04-04T04:15:25;4.07;;;3.10;;
62788;SDS011;66401;42.016;21.454;2023-04-04T04:17:51;5.87;;;3.57;;
62788;SDS011;66401;42.016;21.454;2023-04-04T04:20:16;4.17;;;2.70;;
62788;SDS011;66401;42.016;21.454;2023-04-04T04:22:45;4.53;;;3.20;;
62788;SDS011;66401;42.016;21.454;2023-04-04T04:25:11;3.40;;;3.10;;
62788;SDS011;66401;42.016;21.454;2023-04-04T04:27:37;3.13;;;2.67;;
62788;SDS011;66401;42.016;21.454;2023-04-04T04:30:03;2.90;;;2.20;;
62788;SDS011;66401;42.016;21.454;2023-04-04T04:32:29;3.53;;;3.17;;
62788;SDS011;66401;42.016;21.454;2023-04-04T04:34:54;2.37;;;2.17;;
62788;SDS011;66401;42.016;21.454;2023-04-04T04:37:20;2.43;;;2.13;;
62788;SDS011;66401;42.016;21.454;2023-04-04T04:39:45;1.87;;;1.77;;
62788;SDS011;66401;42.016;21.454;2023-04-04T04:42:11;2.63;;;2.40;;
62788;SDS011;66401;42.016;21.454;2023-04-04T04:44:36;2.90;;;2.60;;
62788;SDS011;66401;42.016;21.454;2023-04-04T04:47:02;4.80;;;2.87;;
62788;SDS011;66401;42.016;21.454;2023-04-04T04:49:28;3.37;;;3.07;;
62788;SDS011;66401;42.016;21.454;2023-04-04T04:51:54;4.07;;;2.93;;
62788;SDS011;66401;42.016;21.454;2023-04-04T04:54:20;3.63;;;2.27;;
62788;SDS011;66401;42.016;21.454;2023-04-04T04:56:46;2.43;;;2.23;;
62788;SDS011;66401;42.016;21.454;2023-04-04T04:59:11;4.37;;;2.93;;
62788;SDS011;66401;42.016;21.454;2023-04-04T05:01:37;4.33;;;3.43;;
62788;SDS011;66401;42.016;21.454;2023-04-04T05:04:03;4.00;;;2.90;;
62788;SDS011;66401;42.016;21.454;2023-04-04T05:06:28;3.00;;;2.80;;
62788;SDS011;66401;42.016;21.454;2023-04-04T05:08:54;3.20;;;2.90;;
62788;SDS011;66401;42.016;21.454;2023-04-04T05:11:19;5.27;;;3.33;;
62788;SDS011;66401;42.016;21.454;2023-04-04T05:13:45;4.87;;;3.63;;
62788;SDS011;66401;42.016;21.454;2023-04-04T05:16:11;3.47;;;3.13;;
62788;SDS011;66401;42.016;21.454;2023-04-04T05:18:37;3.23;;;2.60;;
62788;SDS011;66401;42.016;21.454;2023-04-04T05:21:02;1.33;;;1.23;;
62788;SDS011;66401;42.016;21.454;2023-04-04T05:23:28;1.17;;;1.10;;
62788;SDS011;66401;42.016;21.454;2023-04-04T05:25:53;2.07;;;1.40;;
62788;SDS011;66401;42.016;21.454;2023-04-04T05:28:19;2.10;;;2.00;;
62788;SDS011;66401;42.016;21.454;2023-04-04T05:30:45;2.40;;;2.20;;
62788;SDS011;66401;42.016;21.454;2023-04-04T05:33:11;3.27;;;2.93;;
62788;SDS011;66401;42.016;21.454;2023-04-04T05:35:37;4.33;;;3.40;;
62788;SDS011;66401;42.016;21.454;2023-04-04T05:38:02;2.70;;;2.50;;
62788;SDS011;66401;42.016;21.454;2023-04-04T05:40:28;1.63;;;1.50;;
62788;SDS011;66401;42.016;21.454;2023-04-04T05:42:56;0.90;;;0.90;;
62788;SDS011;66401;42.016;21.454;2023-04-04T05:45:23;0.80;;;0.80;;
62788;SDS011;66401;42.016;21.454;2023-04-04T05:47:50;1.20;;;1.10;;
62788;SDS011;66401;42.016;21.454;2023-04-04T05:50:16;1.57;;;1.20;;
62788;SDS011;66401;42.016;21.454;2023-04-04T05:52:42;1.23;;;1.13;;
62788;SDS011;66401;42.016;21.454;2023-04-04T05:55:08;3.17;;;1.43;;
62788;SDS011;66401;42.016;21.454;2023-04-04T05:57:33;2.00;;;1.63;;
62788;SDS011;66401;42.016;21.454;2023-04-04T05:59:59;2.87;;;2.30;;
62788;SDS011;66401;42.016;21.454;2023-04-04T06:02:25;1.40;;;1.30;;
62788;SDS011;66401;42.016;21.454;2023-04-04T06:04:50;3.27;;;1.50;;
62788;SDS011;66401;42.016;21.454;2023-04-04T06:07:16;1.47;;;1.37;;
62788;SDS011;66401;42.016;21.454;2023-04-04T06:09:42;2.63;;;1.40;;
62788;SDS011;66401;42.016;21.454;2023-04-04T06:12:08;1.73;;;1.20;;
62788;SDS011;66401;42.016;21.454;2023-04-04T06:14:36;1.70;;;1.60;;
62788;SDS011;66401;42.016;21.454;2023-04-04T06:17:02;1.10;;;1.10;;
62788;SDS011;66401;42.016;21.454;2023-04-04T06:19:29;1.00;;;1.00;;
62788;SDS011;66401;42.016;21.454;2023-04-04T06:21:54;2.13;;;1.70;;
62788;SDS011;66401;42.016;21.454;2023-04-04T06:24:19;1.87;;;1.70;;
62788;SDS011;66401;42.016;21.454;2023-04-04T06:26:45;3.93;;;2.20;;
62788;SDS011;66401;42.016;21.454;2023-04-04T06:29:15;1.67;;;1.57;;
62788;SDS011;66401;42.016;21.454;2023-04-04T06:31:42;4.00;;;1.40;;
62788;SDS011;66401;42.016;21.454;2023-04-04T06:34:08;2.33;;;1.53;;
62788;SDS011;66401;42.016;21.454;2023-04-04T06:36:33;2.63;;;1.40;;
62788;SDS011;66401;42.016;21.454;2023-04-04T06:38:58;2.07;;;1.90;;
62788;SDS011;66401;42.016;21.454;2023-04-04T06:41:24;2.10;;;1.63;;
62788;SDS011;66401;42.016;21.454;2023-04-04T06:43:50;2.07;;;1.60;;
62788;SDS011;66401;42.016;21.454;2023-04-04T06:46:16;1.77;;;1.67;;
62788;SDS011;66401;42.016;21.454;2023-04-04T06:48:42;2.67;;;1.30;;
62788;SDS011;66401;42.016;21.454;2023-04-04T06:51:07;1.53;;;1.53;;
62788;SDS011;66401;42.016;21.454;2023-04-04T06:53:33;2.00;;;1.73;;
62788;SDS011;66401;42.016;21.454;2023-04-04T06:55:59;3.27;;;1.63;;
62788;SDS011;66401;42.016;21.454;2023-04-04T06:58:25;1.63;;;1.53;;
62788;SDS011;66401;42.016;21.454;2023-04-04T07:00:50;2.30;;;1.73;;
62788;SDS011;66401;42.016;21.454;2023-04-04T07:03:16;5.33;;;1.53;;
62788;SDS011;66401;42.016;21.454;2023-04-04T07:05:41;3.53;;;2.20;;
62788;SDS011;66401;42.016;21.454;2023-04-04T07:08:07;2.13;;;1.40;;
62788;SDS011;66401;42.016;21.454;2023-04-04T07:10:33;2.33;;;1.50;;
62788;SDS011;66401;42.016;21.454;2023-04-04T07:12:59;2.33;;;1.70;;
62788;SDS011;66401;42.016;21.454;2023-04-04T07:15:25;1.83;;;1.50;;
62788;SDS011;66401;42.016;21.454;2023-04-04T07:17:52;1.70;;;1.60;;
62788;SDS011;66401;42.016;21.454;2023-04-04T07:20:17;1.63;;;1.20;;
62788;SDS011;66401;42.016;21.454;2023-04-04T07:22:43;2.20;;;1.70;;
62788;SDS011;66401;42.016;21.454;2023-04-04T07:25:08;1.83;;;1.73;;
62788;SDS011;66401;42.016;21.454;2023-04-04T07:27:34;3.57;;;1.80;;
62788;SDS011;66401;42.016;21.454;2023-04-04T07:30:00;2.00;;;1.80;;
62788;SDS011;66401;42.016;21.454;2023-04-04T07:32:26;1.47;;;1.37;;
62788;SDS011;66401;42.016;21.454;2023-04-04T07:34:51;1.73;;;1.40;;
62788;SDS011;66401;42.016;21.454;2023-04-04T07:37:17;1.70;;;1.60;;
62788;SDS011;66401;42.016;21.454;2023-04-04T07:39:43;6.33;;;1.50;;
62788;SDS011;66401;42.016;21.454;2023-04-04T07:42:09;1.73;;;1.43;;
62788;SDS011;66401;42.016;21.454;2023-04-04T07:44:34;2.33;;;2.20;;
62788;SDS011;66401;42.016;21.454;2023-04-04T07:47:00;3.00;;;1.80;;
62788;SDS011;66401;42.016;21.454;2023-04-04T07:49:26;1.63;;;1.53;;
62788;SDS011;66401;42.016;21.454;2023-04-04T07:51:51;1.73;;;1.63;;
62788;SDS011;66401;42.016;21.454;2023-04-04T07:54:16;4.77;;;1.90;;
62788;SDS011;66401;42.016;21.454;2023-04-04T07:56:42;1.67;;;1.57;;
62788;SDS011;66401;42.016;21.454;2023-04-04T07:59:07;2.50;;;1.60;;
62788;SDS011;66401;42.016;21.454;2023-04-04T08:01:33;2.87;;;1.90;;
62788;SDS011;66401;42.016;21.454;2023-04-04T08:03:58;3.57;;;1.77;;
62788;SDS011;66401;42.016;21.454;2023-04-04T08:06:24;2.10;;;1.83;;
62788;SDS011;66401;42.016;21.454;2023-04-04T08:08:50;1.90;;;1.80;;
62788;SDS011;66401;42.016;21.454;2023-04-04T08:11:16;2.83;;;1.70;;
62788;SDS011;66401;42.016;21.454;2023-04-04T08:13:42;3.80;;;1.97;;
62788;SDS011;66401;42.016;21.454;2023-04-04T08:16:08;2.60;;;2.40;;
62788;SDS011;66401;42.016;21.454;2023-04-04T08:18:33;2.80;;;2.60;;
62788;SDS011;66401;42.016;21.454;2023-04-04T08:20:59;3.23;;;2.47;;
62788;SDS011;66401;42.016;21.454;2023-04-04T08:23:24;4.07;;;2.87;;
62788;SDS011;66401;42.016;21.454;2023-04-04T08:25:50;3.37;;;2.33;;
62788;SDS011;66401;42.016;21.454;2023-04-04T08:28:16;2.90;;;2.50;;
62788;SDS011;66401;42.016;21.454;2023-04-04T08:30:41;2.33;;;2.13;;
62788;SDS011;66401;42.016;21.454;2023-04-04T08:33:07;4.87;;;2.10;;
62788;SDS011;66401;42.016;21.454;2023-04-04T08:35:33;4.47;;;3.40;;
62788;SDS011;66401;42.016;21.454;2023-04-04T08:37:58;2.50;;;2.30;;
62788;SDS011;66401;42.016;21.454;2023-04-04T08:40:26;4.57;;;2.20;;
62788;SDS011;66401;42.016;21.454;2023-04-04T08:42:54;6.07;;;2.47;;
62788;SDS011;66401;42.016;21.454;2023-04-04T08:45:21;2.10;;;2.00;;
62788;SDS011;66401;42.016;21.454;2023-04-04T08:47:49;3.00;;;1.90;;
62788;SDS011;66401;42.016;21.454;2023-04-04T08:50:18;1.63;;;1.53;;
62788;SDS011;66401;42.016;21.454;2023-04-04T08:52:43;2.93;;;1.77;;
62788;SDS011;66401;42.016;21.454;2023-04-04T08:55:10;2.10;;;1.80;;
62788;SDS011;66401;42.016;21.454;2023-04-04T08:57:36;4.40;;;1.90;;
62788;SDS011;66401;42.016;21.454;2023-04-04T09:00:02;2.10;;;1.90;;
62788;SDS011;66401;42.016;21.454;2023-04-04T09:05:14;4.13;;;2.30;;
62788;SDS011;66401;42.016;21.454;2023-04-04T09:07:40;2.57;;;1.80;;
62788;SDS011;66401;42.016;21.454;2023-04-04T09:10:08;1.90;;;1.80;;
62788;SDS011;66401;42.016;21.454;2023-04-04T09:12:36;2.50;;;2.17;;
62788;SDS011;66401;42.016;21.454;2023-04-04T09:15:06;2.27;;;2.07;;
62788;SDS011;66401;42.016;21.454;2023-04-04T09:17:31;2.07;;;1.97;;
62788;SDS011;66401;42.016;21.454;2023-04-04T09:20:00;2.47;;;1.83;;
62788;SDS011;66401;42.016;21.454;2023-04-04T09:22:29;2.70;;;1.90;;
62788;SDS011;66401;42.016;21.454;2023-04-04T09:24:54;3.90;;;2.47;;
62788;SDS011;66401;42.016;21.454;2023-04-04T09:27:20;2.10;;;1.83;;
62788;SDS011;66401;42.016;21.454;2023-04-04T09:29:46;2.50;;;2.30;;
62788;SDS011;66401;42.016;21.454;2023-04-04T09:32:14;4.33;;;2.40;;
62788;SDS011;66401;42.016;21.454;2023-04-04T09:34:41;2.73;;;2.57;;
62788;SDS011;66401;42.016;21.454;2023-04-04T09:37:10;2.10;;;2.00;;
62788;SDS011;66401;42.016;21.454;2023-04-04T09:39:39;2.00;;;1.90;;
62788;SDS011;66401;42.016;21.454;2023-04-04T09:42:06;2.33;;;2.13;;
62788;SDS011;66401;42.016;21.454;2023-04-04T09:44:31;2.03;;;1.83;;
62788;SDS011;66401;42.016;21.454;2023-04-04T09:49:49;2.77;;;2.57;;
62788;SDS011;66401;42.016;21.454;2023-04-04T09:52:18;2.97;;;2.73;;
62788;SDS011;66401;42.016;21.454;2023-04-04T09:54:53;2.50;;;2.30;;
62788;SDS011;66401;42.016;21.454;2023-04-04T09:57:20;4.30;;;2.83;;
62788;SDS011;66401;42.016;21.454;2023-04-04T09:59:45;3.23;;;2.93;;
62788;SDS011;66401;42.016;21.454;2023-04-04T10:02:11;2.80;;;2.60;;
62788;SDS011;66401;42.016;21.454;2023-04-04T10:04:37;3.00;;;2.40;;
62788;SDS011;66401;42.016;21.454;2023-04-04T10:07:03;2.30;;;2.20;;
62788;SDS011;66401;42.016;21.454;2023-04-04T10:09:29;2.53;;;2.33;;
62788;SDS011;66401;42.016;21.454;2023-04-04T10:12:15;2.77;;;2.57;;
62788;SDS011;66401;42.016;21.454;2023-04-04T10:14:41;3.60;;;2.70;;
62788;SDS011;66401;42.016;21.454;2023-04-04T10:17:07;3.67;;;3.37;;
62788;SDS011;66401;42.016;21.454;2023-04-04T10:19:35;3.27;;;3.00;;
62788;SDS011;66401;42.016;21.454;2023-04-04T10:22:02;3.03;;;2.73;;
62788;SDS011;66401;42.016;21.454;2023-04-04T10:24:28;3.23;;;2.90;;
62788;SDS011;66401;42.016;21.454;2023-04-04T10:26:54;4.87;;;3.40;;
62788;SDS011;66401;42.016;21.454;2023-04-04T10:29:19;3.47;;;2.73;;
62788;SDS011;66401;42.016;21.454;2023-04-04T10:31:46;3.47;;;2.93;;
62788;SDS011;66401;42.016;21.454;2023-04-04T10:34:29;2.70;;;2.50;;
62788;SDS011;66401;42.016;21.454;2023-04-04T10:37:12;2.90;;;2.47;;
62788;SDS011;66401;42.016;21.454;2023-04-04T10:40:08;2.60;;;2.40;;
62788;SDS011;66401;42.016;21.454;2023-04-04T10:42:41;3.03;;;2.83;;
62788;SDS011;66401;42.016;21.454;2023-04-04T10:45:08;4.83;;;3.57;;
62788;SDS011;66401;42.016;21.454;2023-04-04T10:47:35;4.23;;;3.00;;
62788;SDS011;66401;42.016;21.454;2023-04-04T10:50:02;3.10;;;2.10;;
62788;SDS011;66401;42.016;21.454;2023-04-04T10:52:31;2.90;;;2.70;;
62788;SDS011;66401;42.016;21.454;2023-04-04T10:54:57;2.70;;;2.50;;
62788;SDS011;66401;42.016;21.454;2023-04-04T10:57:26;3.93;;;3.03;;
62788;SDS011;66401;42.016;21.454;2023-04-04T11:00:03;3.20;;;2.90;;
62788;SDS011;66401;42.016;21.454;2023-04-04T11:02:48;4.03;;;2.77;;
62788;SDS011;66401;42.016;21.454;2023-04-04T11:07:57;4.60;;;2.70;;
62788;SDS011;66401;42.016;21.454;2023-04-04T11:10:26;3.03;;;2.80;;
62788;SDS011;66401;42.016;21.454;2023-04-04T11:12:55;4.83;;;3.40;;
62788;SDS011;66401;42.016;21.454;2023-04-04T11:15:28;3.23;;;2.87;;
62788;SDS011;66401;42.016;21.454;2023-04-04T11:18:09;4.23;;;2.47;;
62788;SDS011;66401;42.016;21.454;2023-04-04T11:20:38;2.80;;;2.47;;
62788;SDS011;66401;42.016;21.454;2023-04-04T11:25:41;3.03;;;2.80;;
62788;SDS011;66401;42.016;21.454;2023-04-04T11:28:23;5.13;;;3.00;;
62788;SDS011;66401;42.016;21.454;2023-04-04T11:44:30;3.17;;;2.93;;
62788;SDS011;66401;42.016;21.454;2023-04-04T11:49:33;2.33;;;2.20;;
62788;SDS011;66401;42.016;21.454;2023-04-04T11:52:07;3.43;;;2.80;;
62788;SDS011;66401;42.016;21.454;2023-04-04T11:54:37;3.30;;;3.10;;
62788;SDS011;66401;42.016;21.454;2023-04-04T11:57:07;2.80;;;2.60;;
62788;SDS011;66401;42.016;21.454;2023-04-04T11:59:39;3.47;;;3.17;;
62788;SDS011;66401;42.016;21.454;2023-04-04T12:02:06;2.80;;;2.60;;
62788;SDS011;66401;42.016;21.454;2023-04-04T12:04:34;4.23;;;2.90;;
62788;SDS011;66401;42.016;21.454;2023-04-04T12:07:01;5.00;;;3.50;;
62788;SDS011;66401;42.016;21.454;2023-04-04T12:09:30;3.57;;;3.10;;
62788;SDS011;66401;42.016;21.454;2023-04-04T12:11:56;3.73;;;3.10;;
62788;SDS011;66401;42.016;21.454;2023-04-04T12:14:22;4.77;;;3.33;;
62788;SDS011;66401;42.016;21.454;2023-04-04T12:16:53;8.07;;;4.00;;
62788;SDS011;66401;42.016;21.454;2023-04-04T12:19:24;5.93;;;3.77;;
62788;SDS011;66401;42.016;21.454;2023-04-04T12:21:51;4.20;;;3.70;;
62788;SDS011;66401;42.016;21.454;2023-04-04T12:24:18;3.40;;;3.10;;
62788;SDS011;66401;42.016;21.454;2023-04-04T12:26:46;4.27;;;3.13;;
62788;SDS011;66401;42.016;21.454;2023-04-04T12:29:14;3.47;;;3.27;;
62788;SDS011;66401;42.016;21.454;2023-04-04T12:31:41;8.53;;;3.83;;
62788;SDS011;66401;42.016;21.454;2023-04-04T12:34:18;4.90;;;3.13;;
62788;SDS011;66401;42.016;21.454;2023-04-04T12:36:56;4.43;;;2.97;;
62788;SDS011;66401;42.016;21.454;2023-04-04T12:39:24;3.50;;;3.17;;
62788;SDS011;66401;42.016;21.454;2023-04-04T12:41:52;3.50;;;2.83;;
62788;SDS011;66401;42.016;21.454;2023-04-04T12:44:31;3.40;;;3.20;;
62788;SDS011;66401;42.016;21.454;2023-04-04T12:46:59;2.67;;;2.53;;
62788;SDS011;66401;42.016;21.454;2023-04-04T12:49:27;3.33;;;2.57;;
62788;SDS011;66401;42.016;21.454;2023-04-04T12:51:57;6.30;;;3.17;;
62788;SDS011;66401;42.016;21.454;2023-04-04T12:54:37;3.30;;;3.00;;
62788;SDS011;66401;42.016;21.454;2023-04-04T12:57:03;6.70;;;2.93;;
62788;SDS011;66401;42.016;21.454;2023-04-04T12:59:31;3.23;;;2.90;;
62788;SDS011;66401;42.016;21.454;2023-04-04T13:01:59;2.93;;;2.70;;
62788;SDS011;66401;42.016;21.454;2023-04-04T13:04:32;3.80;;;2.80;;
62788;SDS011;66401;42.016;21.454;2023-04-04T13:06:58;3.63;;;2.30;;
62788;SDS011;66401;42.016;21.454;2023-04-04T13:09:24;3.00;;;2.80;;
62788;SDS011;66401;42.016;21.454;2023-04-04T13:17:20;3.07;;;2.87;;
62788;SDS011;66401;42.016;21.454;2023-04-04T13:19:46;2.67;;;2.47;;
62788;SDS011;66401;42.016;21.454;2023-04-04T13:22:12;3.27;;;2.97;;
62788;SDS011;66401;42.016;21.454;2023-04-04T13:24:37;4.00;;;3.60;;
62788;SDS011;66401;42.016;21.454;2023-04-04T13:27:03;3.60;;;3.30;;
62788;SDS011;66401;42.016;21.454;2023-04-04T13:29:28;4.87;;;3.30;;
62788;SDS011;66401;42.016;21.454;2023-04-04T13:31:53;3.40;;;3.03;;
62788;SDS011;66401;42.016;21.454;2023-04-04T13:34:20;3.20;;;3.00;;
62788;SDS011;66401;42.016;21.454;2023-04-04T13:36:46;3.30;;;3.00;;
62788;SDS011;66401;42.016;21.454;2023-04-04T13:39:12;2.80;;;2.60;;
62788;SDS011;66401;42.016;21.454;2023-04-04T13:41:37;2.90;;;2.70;;
62788;SDS011;66401;42.016;21.454;2023-04-04T13:44:03;3.10;;;2.90;;
62788;SDS011;66401;42.016;21.454;2023-04-04T13:46:28;3.30;;;3.00;;
62788;SDS011;66401;42.016;21.454;2023-04-04T13:48:54;5.70;;;3.70;;
62788;SDS011;66401;42.016;21.454;2023-04-04T13:51:19;3.63;;;3.23;;
62788;SDS011;66401;42.016;21.454;2023-04-04T13:53:45;3.17;;;2.67;;
62788;SDS011;66401;42.016;21.454;2023-04-04T13:56:10;4.00;;;3.60;;
62788;SDS011;66401;42.016;21.454;2023-04-04T13:58:36;4.30;;;3.90;;
62788;SDS011;66401;42.016;21.454;2023-04-04T14:01:03;4.07;;;3.67;;
62788;SDS011;66401;42.016;21.454;2023-04-04T14:03:29;3.47;;;3.17;;
62788;SDS011;66401;42.016;21.454;2023-04-04T14:05:55;3.10;;;2.80;;
62788;SDS011;66401;42.016;21.454;2023-04-04T14:08:20;5.10;;;3.30;;
62788;SDS011;66401;42.016;21.454;2023-04-04T14:10:46;3.10;;;2.80;;
62788;SDS011;66401;42.016;21.454;2023-04-04T14:13:11;3.53;;;3.23;;
62788;SDS011;66401;42.016;21.454;2023-04-04T14:15:37;3.50;;;3.20;;
62788;SDS011;66401;42.016;21.454;2023-04-04T14:18:04;3.33;;;3.13;;
62788;SDS011;66401;42.016;21.454;2023-04-04T14:20:30;3.97;;;3.67;;
62788;SDS011;66401;42.016;21.454;2023-04-04T14:22:55;3.63;;;3.40;;
62788;SDS011;66401;42.016;21.454;2023-04-04T14:25:20;4.17;;;3.73;;
62788;SDS011;66401;42.016;21.454;2023-04-04T14:27:46;4.23;;;3.93;;
62788;SDS011;66401;42.016;21.454;2023-04-04T14:30:12;6.90;;;3.70;;
62788;SDS011;66401;42.016;21.454;2023-04-04T14:32:37;3.80;;;3.50;;
62788;SDS011;66401;42.016;21.454;2023-04-04T14:35:03;3.53;;;3.30;;
62788;SDS011;66401;42.016;21.454;2023-04-04T14:37:28;4.27;;;3.97;;
62788;SDS011;66401;42.016;21.454;2023-04-04T14:39:54;3.70;;;3.40;;
62788;SDS011;66401;42.016;21.454;2023-04-04T14:42:20;3.50;;;3.20;;
62788;SDS011;66401;42.016;21.454;2023-04-04T14:44:45;3.80;;;3.53;;
62788;SDS011;66401;42.016;21.454;2023-04-04T14:47:11;3.37;;;3.10;;
62788;SDS011;66401;42.016;21.454;2023-04-04T14:49:36;3.47;;;3.17;;
62788;SDS011;66401;42.016;21.454;2023-04-04T14:52:02;6.77;;;3.40;;
62788;SDS011;66401;42.016;21.454;2023-04-04T14:54:27;3.53;;;3.30;;
62788;SDS011;66401;42.016;21.454;2023-04-04T14:56:53;4.27;;;3.57;;
62788;SDS011;66401;42.016;21.454;2023-04-04T14:59:18;3.90;;;3.10;;
62788;SDS011;66401;42.016;21.454;2023-04-04T15:01:44;4.30;;;4.00;;
62788;SDS011;66401;42.016;21.454;2023-04-04T15:04:09;3.60;;;3.30;;
62788;SDS011;66401;42.016;21.454;2023-04-04T15:06:35;3.37;;;3.13;;
62788;SDS011;66401;42.016;21.454;2023-04-04T15:09:02;4.50;;;3.70;;